createdAt,value
2022-10-05T00:01:29.780Z,2.60
2022-10-05T00:04:19.395Z,2.13
2022-10-05T00:06:53.963Z,2.47
2022-10-05T00:09:21.747Z,2.20
2022-10-05T00:11:49.687Z,2.08
2022-10-05T00:14:28.742Z,2.65
2022-10-05T00:16:56.338Z,2.70
2022-10-05T00:19:33.929Z,2.65
2022-10-05T00:22:12.982Z,2.33
2022-10-05T00:24:39.804Z,2.70
2022-10-05T00:27:25.095Z,2.28
2022-10-05T00:29:57.476Z,2.53
2022-10-05T00:34:51.005Z,2.95
2022-10-05T00:37:17.795Z,2.63
2022-10-05T00:39:45.073Z,2.70
2022-10-05T00:42:40.665Z,2.50
2022-10-05T00:45:30.969Z,2.40
2022-10-05T00:47:57.566Z,2.75
2022-10-05T00:50:53.690Z,2.85
2022-10-05T00:53:50.003Z,3.58
2022-10-05T00:56:58.044Z,2.60
2022-10-05T00:59:44.204Z,3.00
2022-10-05T01:02:22.501Z,3.40
2022-10-05T01:04:53.619Z,3.20
2022-10-05T01:07:23.416Z,3.15
2022-10-05T01:10:06.867Z,3.30
2022-10-05T01:12:48.160Z,3.55
2022-10-05T01:15:23.714Z,3.60
2022-10-05T01:18:14.313Z,3.15
2022-10-05T01:20:51.804Z,3.45
2022-10-05T01:23:54.426Z,3.50
2022-10-05T01:26:59.052Z,3.25
2022-10-05T01:29:30.157Z,3.60
2022-10-05T01:32:10.140Z,4.00
2022-10-05T01:35:03.483Z,3.22
2022-10-05T01:37:49.415Z,3.40
2022-10-05T01:40:22.644Z,3.35
2022-10-05T01:42:49.249Z,3.42
2022-10-05T01:45:42.523Z,3.78
2022-10-05T01:48:36.929Z,3.55
2022-10-05T01:51:12.633Z,3.25
2022-10-05T01:53:44.916Z,3.53
2022-10-05T01:56:20.562Z,3.47
2022-10-05T01:59:05.563Z,3.13
2022-10-05T02:04:10.928Z,3.97
2022-10-05T02:06:47.946Z,3.42
2022-10-05T02:09:21.013Z,3.80
2022-10-05T02:12:07.728Z,3.95
2022-10-05T02:14:42.555Z,3.28
2022-10-05T02:17:21.772Z,3.20
2022-10-05T02:19:52.806Z,3.65
2022-10-05T02:22:32.956Z,3.60
2022-10-05T02:25:03.161Z,3.25
2022-10-05T02:27:43.976Z,3.08
2022-10-05T02:30:16.193Z,3.50
2022-10-05T02:33:00.226Z,3.70
2022-10-05T02:35:27.106Z,3.20
2022-10-05T02:38:03.586Z,3.33
2022-10-05T02:40:58.708Z,3.80
2022-10-05T02:43:55.742Z,2.78
2022-10-05T02:46:32.868Z,3.20
2022-10-05T02:49:24.256Z,3.22
2022-10-05T02:54:26.602Z,3.17
2022-10-05T02:57:27.980Z,3.60
2022-10-05T03:00:04.919Z,2.92
2022-10-05T03:02:44.240Z,2.80
2022-10-05T03:05:10.935Z,3.35
2022-10-05T03:07:47.028Z,4.15
2022-10-05T03:10:18.766Z,4.03
2022-10-05T03:13:12.822Z,3.75
2022-10-05T03:16:12.948Z,4.53
2022-10-05T03:18:45.420Z,3.88
2022-10-05T03:26:32.883Z,3.80
2022-10-05T03:29:30.469Z,4.45
2022-10-05T03:32:18.131Z,4.82
2022-10-05T03:35:00.638Z,4.68
2022-10-05T03:37:35.251Z,4.50
2022-10-05T03:40:19.867Z,4.30
2022-10-05T03:42:58.957Z,4.35
2022-10-05T03:45:53.552Z,4.20
2022-10-05T03:48:32.277Z,4.32
2022-10-05T03:51:10.384Z,4.15
2022-10-05T03:53:47.313Z,4.07
2022-10-05T03:56:27.003Z,4.88
2022-10-05T03:59:18.373Z,4.82
2022-10-05T04:04:31.798Z,4.13
2022-10-05T04:07:01.509Z,4.30
2022-10-05T04:09:32.455Z,4.72
2022-10-05T04:12:26.378Z,5.15
2022-10-05T04:15:31.511Z,4.60
2022-10-05T04:18:04.309Z,5.60
2022-10-05T04:20:43.318Z,5.35
2022-10-05T04:23:09.899Z,4.90
2022-10-05T04:25:46.222Z,4.75
2022-10-05T04:28:32.381Z,5.80
2022-10-05T04:31:02.725Z,5.93
2022-10-05T04:33:29.415Z,4.97
2022-10-05T04:36:11.109Z,4.72
2022-10-05T04:38:48.222Z,5.10
2022-10-05T04:41:30.516Z,5.35
2022-10-05T04:44:16.865Z,5.28
2022-10-05T04:47:03.314Z,5.35
2022-10-05T04:49:57.109Z,6.15
2022-10-05T04:52:34.872Z,5.63
2022-10-05T04:55:20.144Z,5.78
2022-10-05T04:57:58.827Z,6.22
2022-10-05T05:00:29.759Z,5.78
2022-10-05T05:03:07.006Z,6.53
2022-10-05T05:06:18.722Z,6.72
2022-10-05T05:09:23.622Z,5.80
2022-10-05T05:12:15.222Z,5.50
2022-10-05T05:15:04.255Z,5.78
2022-10-05T05:17:40.577Z,5.32
2022-10-05T05:20:41.895Z,6.13
2022-10-05T05:23:17.740Z,5.30
2022-10-05T05:26:03.532Z,6.22
2022-10-05T05:28:41.297Z,5.43
2022-10-05T05:31:23.465Z,5.78
2022-10-05T05:34:25.640Z,5.60
2022-10-05T05:37:03.987Z,6.68
2022-10-05T05:39:39.745Z,8.13
2022-10-05T05:42:28.051Z,8.77
2022-10-05T05:44:57.926Z,10.82
2022-10-05T05:47:38.135Z,10.00
2022-10-05T05:50:19.661Z,12.00
2022-10-05T05:52:53.275Z,11.15
2022-10-05T05:55:42.475Z,9.90
2022-10-05T05:58:25.484Z,10.85
2022-10-05T06:00:59.582Z,11.70
2022-10-05T06:03:40.081Z,11.68
2022-10-05T06:06:11.368Z,12.15
2022-10-05T06:08:52.111Z,11.70
2022-10-05T06:11:32.768Z,11.45
2022-10-05T06:14:05.092Z,12.27
2022-10-05T06:16:40.578Z,11.85
2022-10-05T06:19:16.901Z,11.70
2022-10-05T06:22:06.366Z,11.60
2022-10-05T06:24:43.037Z,12.05
2022-10-05T06:27:24.996Z,13.02
2022-10-05T06:30:09.741Z,12.27
2022-10-05T06:32:58.376Z,13.20
2022-10-05T06:35:43.925Z,11.30
2022-10-05T06:38:16.425Z,11.25
2022-10-05T06:43:43.271Z,11.63
2022-10-05T06:46:16.966Z,12.93
2022-10-05T06:49:08.714Z,12.50
2022-10-05T06:51:56.921Z,12.85
2022-10-05T06:54:45.793Z,12.68
2022-10-05T06:57:36.511Z,11.93
2022-10-05T07:00:20.759Z,12.93
2022-10-05T07:03:05.025Z,12.68
2022-10-05T07:06:02.498Z,13.25
2022-10-05T07:08:59.505Z,12.40
2022-10-05T07:11:56.386Z,11.95
2022-10-05T07:14:37.729Z,13.50
2022-10-05T07:17:39.623Z,12.43
2022-10-05T07:20:30.189Z,12.52
2022-10-05T07:23:24.323Z,12.57
2022-10-05T07:26:00.790Z,10.60
2022-10-05T07:28:48.108Z,12.27
2022-10-05T07:31:17.535Z,11.05
2022-10-05T07:34:11.556Z,11.02
2022-10-05T07:37:12.469Z,10.80
2022-10-05T07:40:05.288Z,10.13
2022-10-05T07:42:52.319Z,10.48
2022-10-05T07:45:51.991Z,10.70
2022-10-05T07:48:33.196Z,10.98
2022-10-05T07:51:06.262Z,12.57
2022-10-05T07:54:10.038Z,10.98
2022-10-05T07:56:45.949Z,11.07
2022-10-05T07:59:23.092Z,11.07
2022-10-05T08:01:59.806Z,10.88
2022-10-05T08:04:45.164Z,10.10
2022-10-05T08:07:16.469Z,9.98
2022-10-05T08:09:47.244Z,9.50
2022-10-05T08:12:39.239Z,9.60
2022-10-05T08:15:15.378Z,8.80
2022-10-05T08:17:56.839Z,9.45
2022-10-05T08:20:56.745Z,9.63
2022-10-05T08:23:39.144Z,9.75
2022-10-05T08:26:14.690Z,9.27
2022-10-05T08:28:55.281Z,8.05
2022-10-05T08:31:32.332Z,9.32
2022-10-05T08:34:20.230Z,8.57
2022-10-05T08:37:07.800Z,8.82
2022-10-05T08:39:40.393Z,8.35
2022-10-05T08:42:35.496Z,8.65
2022-10-05T08:45:35.927Z,6.82
2022-10-05T08:48:17.786Z,7.13
2022-10-05T08:51:07.984Z,7.15
2022-10-05T08:53:37.371Z,7.22
2022-10-05T08:56:29.533Z,6.95
2022-10-05T08:59:10.808Z,7.18
2022-10-05T09:01:58.629Z,6.45
2022-10-05T09:04:53.689Z,6.22
2022-10-05T09:07:52.596Z,6.85
2022-10-05T09:10:38.247Z,7.00
2022-10-05T09:13:22.907Z,6.47
2022-10-05T09:16:16.920Z,6.55
2022-10-05T09:19:14.794Z,6.65
2022-10-05T09:21:58.039Z,6.38
2022-10-05T09:24:34.596Z,7.07
2022-10-05T09:27:16.643Z,5.85
2022-10-05T09:30:05.572Z,6.68
2022-10-05T09:32:57.756Z,6.88
2022-10-05T09:35:45.356Z,6.05
2022-10-05T09:38:43.392Z,7.53
2022-10-05T09:41:25.861Z,6.78
2022-10-05T09:44:33.043Z,6.25
2022-10-05T09:47:48.219Z,7.32
2022-10-05T09:50:52.002Z,5.88
2022-10-05T09:56:34.920Z,5.68
2022-10-05T09:59:22.798Z,6.55
2022-10-05T10:02:07.798Z,5.10
2022-10-05T10:05:05.550Z,5.57
2022-10-05T10:07:38.322Z,5.68
2022-10-05T10:10:32.069Z,5.47
2022-10-05T10:13:17.165Z,6.30
2022-10-05T10:16:02.800Z,5.10
2022-10-05T10:18:56.870Z,5.80
2022-10-05T10:21:45.618Z,5.28
2022-10-05T10:24:43.129Z,4.68
2022-10-05T10:27:18.786Z,4.72
2022-10-05T10:30:18.984Z,5.30
2022-10-05T10:32:57.881Z,4.28
2022-10-05T10:35:39.775Z,4.97
2022-10-05T10:38:38.053Z,4.80
2022-10-05T10:41:21.099Z,4.63
2022-10-05T10:44:30.714Z,4.13
2022-10-05T10:47:34.015Z,3.78
2022-10-05T10:50:24.348Z,3.13
2022-10-05T10:53:29.952Z,2.53
2022-10-05T10:56:08.882Z,2.45
2022-10-05T10:58:35.485Z,2.15
2022-10-05T11:01:21.455Z,2.47
2022-10-05T11:03:59.757Z,2.38
2022-10-05T11:06:38.515Z,1.90
2022-10-05T11:09:33.699Z,1.95
2022-10-05T11:12:18.165Z,2.40
2022-10-05T11:14:52.440Z,2.10
2022-10-05T11:17:49.103Z,2.10
2022-10-05T11:20:46.221Z,1.70
2022-10-05T11:23:47.186Z,2.20
2022-10-05T11:26:41.808Z,2.00
2022-10-05T11:29:37.391Z,1.90
2022-10-05T11:32:38.054Z,2.00
2022-10-05T11:35:14.094Z,2.10
2022-10-05T11:38:09.065Z,1.80
2022-10-05T11:41:17.769Z,1.92
2022-10-05T11:43:50.202Z,2.05
2022-10-05T11:46:16.855Z,2.15
2022-10-05T11:49:07.164Z,1.70
2022-10-05T11:51:56.329Z,1.98
2022-10-05T11:55:09.785Z,1.80
2022-10-05T11:58:01.710Z,1.90
2022-10-05T12:03:23.208Z,2.25
2022-10-05T12:06:11.310Z,2.13
2022-10-05T12:09:04.637Z,2.15
2022-10-05T12:11:46.603Z,2.30
2022-10-05T12:14:33.771Z,2.47
2022-10-05T12:17:20.752Z,3.10
2022-10-05T12:20:12.373Z,2.45
2022-10-05T12:22:46.016Z,2.55
2022-10-05T12:25:44.740Z,2.55
2022-10-05T12:28:15.535Z,2.17
2022-10-05T12:31:05.348Z,2.42
2022-10-05T12:33:49.163Z,1.90
2022-10-05T12:36:59.717Z,1.90
2022-10-05T12:39:50.443Z,2.40
2022-10-05T12:42:40.813Z,2.08
2022-10-05T12:48:05.398Z,2.63
2022-10-05T12:50:41.591Z,2.63
2022-10-05T12:53:41.751Z,2.35
2022-10-05T12:56:10.183Z,2.70
2022-10-05T12:59:06.198Z,2.33
2022-10-05T13:01:47.371Z,2.72
2022-10-05T13:04:17.802Z,2.38
2022-10-05T13:06:44.364Z,2.60
2022-10-05T13:09:23.092Z,2.75
2022-10-05T13:11:53.356Z,2.60
2022-10-05T13:14:50.782Z,3.00
2022-10-05T13:17:39.063Z,2.28
2022-10-05T13:20:42.878Z,2.70
2022-10-05T13:23:31.367Z,2.75
2022-10-05T13:26:07.775Z,2.72
2022-10-05T13:28:41.956Z,2.85
2022-10-05T13:31:24.647Z,2.55
2022-10-05T13:34:14.273Z,2.60
2022-10-05T13:37:05.873Z,3.03
2022-10-05T13:39:41.545Z,2.63
2022-10-05T13:42:19.425Z,3.30
2022-10-05T13:45:10.110Z,3.47
2022-10-05T13:47:48.620Z,3.10
2022-10-05T13:50:31.187Z,2.90
2022-10-05T13:53:27.639Z,3.15
2022-10-05T13:56:07.280Z,3.72
2022-10-05T13:58:44.927Z,3.80
2022-10-05T14:01:22.332Z,3.83
2022-10-05T14:04:29.888Z,3.67
2022-10-05T14:06:56.550Z,3.38
2022-10-05T14:09:33.483Z,3.70
2022-10-05T14:12:02.816Z,3.40
2022-10-05T14:14:42.158Z,3.33
2022-10-05T14:17:37.806Z,3.28
2022-10-05T14:20:39.937Z,4.20
2022-10-05T14:23:18.456Z,3.70
2022-10-05T14:25:54.063Z,3.33
2022-10-05T14:28:29.407Z,3.50
2022-10-05T14:31:14.982Z,3.35
2022-10-05T14:33:42.265Z,3.40
2022-10-05T14:36:36.558Z,3.20
2022-10-05T14:39:05.171Z,3.15
2022-10-05T14:41:37.181Z,2.78
2022-10-05T14:44:12.764Z,3.05
2022-10-05T14:46:52.157Z,3.45
2022-10-05T14:49:25.639Z,3.58
2022-10-05T14:51:53.632Z,3.28
2022-10-05T14:54:41.225Z,2.97
2022-10-05T14:57:26.132Z,2.83
2022-10-05T15:00:14.291Z,2.80
2022-10-05T15:03:05.579Z,3.13
2022-10-05T15:05:45.812Z,3.17
2022-10-05T15:08:24.495Z,2.90
2022-10-05T15:11:04.747Z,3.65
2022-10-05T15:13:36.560Z,3.00
2022-10-05T15:16:19.973Z,3.03
2022-10-05T15:19:13.446Z,3.00
2022-10-05T15:21:51.027Z,3.05
2022-10-05T15:24:20.715Z,3.30
2022-10-05T15:26:51.356Z,4.00
2022-10-05T15:29:41.971Z,3.50
2022-10-05T15:33:11.115Z,3.78
2022-10-05T15:35:46.131Z,3.10
2022-10-05T15:38:20.766Z,3.15
2022-10-05T15:41:30.021Z,3.50
2022-10-05T15:44:14.448Z,3.70
2022-10-05T15:46:58.143Z,2.88
2022-10-05T15:49:33.770Z,3.20
2022-10-05T15:52:19.766Z,3.20
2022-10-05T15:55:09.086Z,2.75
2022-10-05T15:57:45.304Z,2.90
2022-10-05T16:00:11.919Z,3.15
2022-10-05T16:03:00.944Z,3.10
2022-10-05T16:05:55.184Z,3.40
2022-10-05T16:09:02.919Z,2.88
2022-10-05T16:11:43.729Z,2.92
2022-10-05T16:14:18.145Z,3.15
2022-10-05T16:17:10.433Z,3.58
2022-10-05T16:19:47.831Z,3.85
2022-10-05T16:22:43.329Z,3.20
2022-10-05T16:25:39.960Z,3.67
2022-10-05T16:28:18.803Z,2.63
2022-10-05T16:30:45.454Z,2.72
2022-10-05T16:33:26.855Z,3.00
2022-10-05T16:36:08.932Z,2.60
2022-10-05T16:39:13.245Z,2.72
2022-10-05T16:41:50.240Z,2.70
2022-10-05T16:44:52.261Z,2.30
2022-10-05T16:47:39.993Z,2.38
2022-10-05T16:50:17.933Z,2.65
2022-10-05T16:52:50.988Z,2.53
2022-10-05T16:55:35.838Z,2.30
2022-10-05T16:58:10.547Z,2.55
2022-10-05T17:01:05.487Z,2.50
2022-10-05T17:03:41.042Z,2.15
2022-10-05T17:06:54.043Z,3.10
2022-10-05T17:09:59.347Z,2.90
2022-10-05T17:12:56.346Z,2.60
2022-10-05T17:15:49.429Z,2.58
2022-10-05T17:18:54.574Z,2.47
2022-10-05T17:21:57.336Z,2.70
2022-10-05T17:24:32.361Z,2.50
2022-10-05T17:27:15.942Z,2.67
2022-10-05T17:29:54.545Z,2.80
2022-10-05T17:32:36.080Z,2.85
2022-10-05T17:35:18.182Z,2.45
2022-10-05T17:38:18.110Z,3.17
2022-10-05T17:41:00.056Z,2.60
2022-10-05T17:43:28.936Z,2.63
2022-10-05T17:45:58.531Z,2.22
2022-10-05T17:49:07.204Z,2.55
2022-10-05T17:51:52.226Z,2.95
2022-10-05T17:54:41.664Z,2.78
2022-10-05T17:57:08.312Z,2.45
2022-10-05T17:59:46.398Z,2.40
2022-10-05T18:02:36.210Z,2.47
2022-10-05T18:05:12.090Z,2.53
2022-10-05T18:07:40.428Z,2.97
2022-10-05T18:10:11.549Z,3.10
2022-10-05T18:13:10.815Z,3.00
2022-10-05T18:15:45.087Z,2.55
2022-10-05T18:18:32.700Z,2.85
2022-10-05T18:21:46.493Z,2.75
2022-10-05T18:24:14.062Z,2.72
2022-10-05T18:26:59.493Z,3.83
2022-10-05T18:29:53.807Z,2.97
2022-10-05T18:32:39.038Z,3.95
2022-10-05T18:35:19.790Z,3.35
2022-10-05T18:38:10.146Z,3.05
2022-10-05T18:40:38.243Z,2.97
2022-10-05T18:43:23.290Z,2.80
2022-10-05T18:45:58.836Z,3.55
2022-10-05T18:49:08.402Z,3.08
2022-10-05T18:51:52.084Z,2.83
2022-10-05T18:54:36.674Z,3.30
2022-10-05T18:57:52.985Z,3.08
2022-10-05T19:02:50.601Z,3.70
2022-10-05T19:05:46.357Z,2.78
2022-10-05T19:08:12.531Z,2.78
2022-10-05T19:10:42.294Z,3.10
2022-10-05T19:13:17.888Z,3.03
2022-10-05T19:16:09.470Z,2.17
2022-10-05T19:18:39.771Z,2.53
2022-10-05T19:21:35.323Z,2.75
2022-10-05T19:24:12.568Z,2.35
2022-10-05T19:27:07.283Z,2.50
2022-10-05T19:29:51.014Z,2.47
2022-10-05T19:32:47.967Z,2.30
2022-10-05T19:35:30.665Z,2.80
2022-10-05T19:38:03.227Z,2.80
2022-10-05T19:40:55.316Z,2.50
2022-10-05T19:43:43.169Z,2.53
2022-10-05T19:46:30.791Z,2.45
2022-10-05T19:48:57.715Z,2.85
2022-10-05T19:51:29.410Z,2.78
2022-10-05T19:54:25.785Z,2.75
2022-10-05T19:56:54.589Z,2.58
2022-10-05T19:59:25.777Z,3.20
2022-10-05T20:01:55.354Z,3.13
2022-10-05T20:04:38.984Z,3.35
2022-10-05T20:07:05.779Z,2.72
2022-10-05T20:09:59.084Z,2.75
2022-10-05T20:12:51.894Z,3.55
2022-10-05T20:15:40.270Z,3.55
2022-10-05T20:18:50.566Z,4.38
2022-10-05T20:21:40.783Z,4.57
2022-10-05T20:24:25.751Z,4.68
2022-10-05T20:27:02.743Z,4.95
2022-10-05T20:29:31.886Z,4.88
2022-10-05T20:31:58.602Z,4.53
2022-10-05T20:34:25.434Z,4.60
2022-10-05T20:36:52.152Z,4.75
2022-10-05T20:39:21.148Z,5.13
2022-10-05T20:41:48.041Z,4.75
2022-10-05T20:44:14.921Z,4.95
2022-10-05T20:46:41.717Z,5.22
2022-10-05T20:49:11.520Z,5.78
2022-10-05T20:51:40.067Z,5.05
2022-10-05T20:54:07.752Z,6.47
2022-10-05T20:56:34.845Z,5.28
2022-10-05T20:59:01.527Z,4.97
2022-10-05T21:01:30.292Z,4.50
2022-10-05T21:03:57.350Z,4.53
2022-10-05T21:06:28.644Z,4.78
2022-10-05T21:08:55.575Z,4.68
2022-10-05T21:11:22.510Z,4.65
2022-10-05T21:13:49.452Z,4.00
2022-10-05T21:16:18.505Z,3.78
2022-10-05T21:18:48.594Z,4.20
2022-10-05T21:21:18.330Z,4.03
2022-10-05T21:23:46.628Z,3.75
2022-10-05T21:26:14.785Z,3.85
2022-10-05T21:28:41.877Z,3.78
2022-10-05T21:31:08.802Z,4.00
2022-10-05T21:33:36.066Z,3.90
2022-10-05T21:36:03.126Z,3.42
2022-10-05T21:38:30.072Z,4.05
2022-10-05T21:40:57.075Z,3.70
2022-10-05T21:43:24.213Z,4.03
2022-10-05T21:45:51.091Z,4.40
2022-10-05T21:48:18.534Z,4.60
2022-10-05T21:50:45.926Z,3.50
2022-10-05T21:53:15.906Z,3.70
2022-10-05T21:55:46.079Z,3.33
2022-10-05T21:58:14.867Z,4.00
2022-10-05T22:00:41.626Z,3.88
2022-10-05T22:03:08.727Z,4.43
2022-10-05T22:05:36.478Z,4.20
2022-10-05T22:08:04.665Z,3.65
2022-10-05T22:10:32.528Z,3.88
2022-10-05T22:13:01.113Z,3.10
2022-10-05T22:15:31.700Z,3.70
2022-10-05T22:17:59.593Z,3.90
2022-10-05T22:20:26.882Z,3.58
2022-10-05T22:22:53.986Z,3.30
2022-10-05T22:25:21.545Z,3.38
2022-10-05T22:27:49.219Z,3.47
2022-10-05T22:30:15.990Z,3.40
2022-10-05T22:32:43.579Z,2.60
2022-10-05T22:35:11.680Z,3.35
2022-10-05T22:37:38.869Z,2.60
2022-10-05T22:40:06.856Z,2.60
2022-10-05T22:42:33.959Z,2.65
2022-10-05T22:45:00.573Z,2.78
2022-10-05T22:47:27.209Z,2.38
2022-10-05T22:49:53.860Z,2.72
2022-10-05T22:52:20.536Z,2.60
2022-10-05T22:54:47.150Z,2.55
2022-10-05T22:57:13.739Z,2.50
2022-10-05T22:59:40.456Z,2.72
2022-10-05T23:02:07.153Z,2.50
2022-10-05T23:04:33.800Z,2.42
2022-10-05T23:07:00.418Z,2.30
2022-10-05T23:09:27.168Z,2.30
2022-10-05T23:11:54.434Z,2.58
2022-10-05T23:14:21.281Z,1.98
2022-10-05T23:16:48.014Z,2.28
2022-10-05T23:19:14.741Z,2.20
2022-10-05T23:21:41.620Z,2.35
2022-10-05T23:24:08.394Z,2.30
2022-10-05T23:26:35.351Z,1.98
2022-10-05T23:29:02.020Z,2.40
2022-10-05T23:31:30.698Z,2.30
2022-10-05T23:33:57.340Z,2.65
2022-10-05T23:36:32.167Z,2.45
2022-10-05T23:38:59.230Z,2.40
2022-10-05T23:41:25.943Z,2.60
2022-10-05T23:43:55.156Z,2.60
2022-10-05T23:46:22.133Z,2.50
2022-10-05T23:48:50.234Z,2.70
2022-10-05T23:51:17.207Z,2.42
2022-10-05T23:53:44.030Z,2.05
2022-10-05T23:56:10.992Z,2.38
2022-10-05T23:58:37.646Z,2.22
